sensor_id;sensor_type;location;lat;lon;timestamp;pressure;altitude;pressure_sealevel;temperature
67353;BMP180;54238;52.278;21.056;2023-05-29T00:00:14;100800.60;;;13.00
67353;BMP180;54238;52.278;21.056;2023-05-29T00:03:04;100800.40;;;12.90
67353;BMP180;54238;52.278;21.056;2023-05-29T00:05:41;100803.00;;;12.90
67353;BMP180;54238;52.278;21.056;2023-05-29T00:08:08;100797.20;;;12.90
67353;BMP180;54238;52.278;21.056;2023-05-29T00:10:36;100798.60;;;12.84
67353;BMP180;54238;52.278;21.056;2023-05-29T00:13:04;100796.00;;;12.80
67353;BMP180;54238;52.278;21.056;2023-05-29T00:15:36;100795.60;;;12.80
67353;BMP180;54238;52.278;21.056;2023-05-29T00:18:05;100794.80;;;12.80
67353;BMP180;54238;52.278;21.056;2023-05-29T00:20:36;100793.60;;;12.80
67353;BMP180;54238;52.278;21.056;2023-05-29T00:23:05;100791.40;;;12.80
67353;BMP180;54238;52.278;21.056;2023-05-29T00:25:38;100794.80;;;12.80
67353;BMP180;54238;52.278;21.056;2023-05-29T00:28:07;100792.40;;;12.70
67353;BMP180;54238;52.278;21.056;2023-05-29T00:30:56;100792.00;;;12.66
67353;BMP180;54238;52.278;21.056;2023-05-29T00:33:28;100792.60;;;12.54
67353;BMP180;54238;52.278;21.056;2023-05-29T00:35:55;100787.80;;;12.50
67353;BMP180;54238;52.278;21.056;2023-05-29T00:38:24;100791.80;;;12.50
67353;BMP180;54238;52.278;21.056;2023-05-29T00:40:56;100791.40;;;12.50
67353;BMP180;54238;52.278;21.056;2023-05-29T00:43:25;100793.80;;;12.40
67353;BMP180;54238;52.278;21.056;2023-05-29T00:45:56;100792.00;;;12.40
67353;BMP180;54238;52.278;21.056;2023-05-29T00:48:26;100794.00;;;12.30
67353;BMP180;54238;52.278;21.056;2023-05-29T00:50:58;100794.20;;;12.28
67353;BMP180;54238;52.278;21.056;2023-05-29T00:53:26;100795.40;;;12.28
67353;BMP180;54238;52.278;21.056;2023-05-29T00:55:59;100795.40;;;12.20
67353;BMP180;54238;52.278;21.056;2023-05-29T00:58:33;100794.20;;;12.10
67353;BMP180;54238;52.278;21.056;2023-05-29T01:01:00;100795.60;;;12.10
67353;BMP180;54238;52.278;21.056;2023-05-29T01:03:31;100793.40;;;12.10
67353;BMP180;54238;52.278;21.056;2023-05-29T01:06:02;100788.60;;;12.10
67353;BMP180;54238;52.278;21.056;2023-05-29T01:08:32;100790.20;;;12.10
67353;BMP180;54238;52.278;21.056;2023-05-29T01:11:57;100787.40;;;12.10
67353;BMP180;54238;52.278;21.056;2023-05-29T01:26:21;100786.40;;;11.80
67353;BMP180;54238;52.278;21.056;2023-05-29T01:28:57;100783.80;;;11.80
67353;BMP180;54238;52.278;21.056;2023-05-29T01:31:31;100784.20;;;11.80
67353;BMP180;54238;52.278;21.056;2023-05-29T01:34:01;100782.60;;;11.80
67353;BMP180;54238;52.278;21.056;2023-05-29T01:36:31;100785.00;;;11.70
67353;BMP180;54238;52.278;21.056;2023-05-29T01:39:00;100780.80;;;11.70
67353;BMP180;54238;52.278;21.056;2023-05-29T01:41:29;100784.80;;;11.68
67353;BMP180;54238;52.278;21.056;2023-05-29T01:44:07;100787.00;;;11.68
67353;BMP180;54238;52.278;21.056;2023-05-29T01:46:37;100785.80;;;11.60
67353;BMP180;54238;52.278;21.056;2023-05-29T01:49:09;100787.40;;;11.66
67353;BMP180;54238;52.278;21.056;2023-05-29T01:51:39;100784.80;;;11.70
67353;BMP180;54238;52.278;21.056;2023-05-29T01:54:08;100785.20;;;11.70
67353;BMP180;54238;52.278;21.056;2023-05-29T01:56:38;100787.40;;;11.70
67353;BMP180;54238;52.278;21.056;2023-05-29T01:59:06;100788.40;;;11.62
67353;BMP180;54238;52.278;21.056;2023-05-29T02:01:41;100785.40;;;11.60
67353;BMP180;54238;52.278;21.056;2023-05-29T02:04:14;100787.80;;;11.60
67353;BMP180;54238;52.278;21.056;2023-05-29T02:06:41;100783.00;;;11.54
67353;BMP180;54238;52.278;21.056;2023-05-29T02:09:10;100780.80;;;11.50
67353;BMP180;54238;52.278;21.056;2023-05-29T02:11:42;100773.60;;;11.50
67353;BMP180;54238;52.278;21.056;2023-05-29T02:14:12;100775.40;;;11.50
67353;BMP180;54238;52.278;21.056;2023-05-29T02:16:44;100767.20;;;11.50
67353;BMP180;54238;52.278;21.056;2023-05-29T02:19:11;100762.20;;;11.50
67353;BMP180;54238;52.278;21.056;2023-05-29T02:21:41;100763.00;;;11.40
67353;BMP180;54238;52.278;21.056;2023-05-29T02:24:11;100758.40;;;11.40
67353;BMP180;54238;52.278;21.056;2023-05-29T02:26:40;100758.80;;;11.40
67353;BMP180;54238;52.278;21.056;2023-05-29T02:29:09;100760.20;;;11.40
67353;BMP180;54238;52.278;21.056;2023-05-29T02:31:43;100759.80;;;11.40
67353;BMP180;54238;52.278;21.056;2023-05-29T02:34:17;100759.20;;;11.38
67353;BMP180;54238;52.278;21.056;2023-05-29T02:36:49;100755.20;;;11.30
67353;BMP180;54238;52.278;21.056;2023-05-29T02:39:16;100754.20;;;11.30
67353;BMP180;54238;52.278;21.056;2023-05-29T02:41:43;100752.00;;;11.30
67353;BMP180;54238;52.278;21.056;2023-05-29T02:44:14;100750.80;;;11.20
67353;BMP180;54238;52.278;21.056;2023-05-29T02:46:44;100749.40;;;11.20
67353;BMP180;54238;52.278;21.056;2023-05-29T02:49:29;100745.60;;;11.20
67353;BMP180;54238;52.278;21.056;2023-05-29T02:52:04;100749.20;;;11.30
67353;BMP180;54238;52.278;21.056;2023-05-29T02:54:33;100747.00;;;11.20
67353;BMP180;54238;52.278;21.056;2023-05-29T02:57:05;100741.60;;;11.20
67353;BMP180;54238;52.278;21.056;2023-05-29T02:59:37;100746.20;;;11.20
67353;BMP180;54238;52.278;21.056;2023-05-29T03:02:07;100748.20;;;11.20
67353;BMP180;54238;52.278;21.056;2023-05-29T03:04:45;100752.00;;;11.10
67353;BMP180;54238;52.278;21.056;2023-05-29T03:07:12;100751.00;;;11.10
67353;BMP180;54238;52.278;21.056;2023-05-29T03:09:44;100750.60;;;11.10
67353;BMP180;54238;52.278;21.056;2023-05-29T03:12:13;100755.00;;;11.12
67353;BMP180;54238;52.278;21.056;2023-05-29T03:14:43;100758.40;;;11.20
67353;BMP180;54238;52.278;21.056;2023-05-29T03:17:14;100756.80;;;11.20
67353;BMP180;54238;52.278;21.056;2023-05-29T03:19:46;100756.60;;;11.30
67353;BMP180;54238;52.278;21.056;2023-05-29T03:22:15;100750.80;;;11.22
67353;BMP180;54238;52.278;21.056;2023-05-29T03:24:42;100754.40;;;11.20
67353;BMP180;54238;52.278;21.056;2023-05-29T03:27:14;100760.00;;;11.30
67353;BMP180;54238;52.278;21.056;2023-05-29T03:29:46;100762.80;;;11.40
67353;BMP180;54238;52.278;21.056;2023-05-29T03:32:19;100767.00;;;11.30
67353;BMP180;54238;52.278;21.056;2023-05-29T03:34:46;100764.60;;;11.20
67353;BMP180;54238;52.278;21.056;2023-05-29T03:37:18;100767.60;;;11.20
67353;BMP180;54238;52.278;21.056;2023-05-29T03:39:46;100769.80;;;11.16
67353;BMP180;54238;52.278;21.056;2023-05-29T03:42:13;100772.40;;;11.10
67353;BMP180;54238;52.278;21.056;2023-05-29T03:44:42;100767.60;;;11.10
67353;BMP180;54238;52.278;21.056;2023-05-29T03:47:11;100772.20;;;11.20
67353;BMP180;54238;52.278;21.056;2023-05-29T03:49:40;100770.80;;;11.22
67353;BMP180;54238;52.278;21.056;2023-05-29T03:52:15;100771.20;;;11.30
67353;BMP180;54238;52.278;21.056;2023-05-29T03:54:42;100769.20;;;11.30
67353;BMP180;54238;52.278;21.056;2023-05-29T03:57:12;100768.60;;;11.40
67353;BMP180;54238;52.278;21.056;2023-05-29T03:59:41;100774.20;;;11.40
67353;BMP180;54238;52.278;21.056;2023-05-29T04:02:08;100776.20;;;11.40
67353;BMP180;54238;52.278;21.056;2023-05-29T04:04:42;100775.60;;;11.50
67353;BMP180;54238;52.278;21.056;2023-05-29T04:07:11;100779.60;;;11.50
67353;BMP180;54238;52.278;21.056;2023-05-29T04:09:41;100777.60;;;11.60
67353;BMP180;54238;52.278;21.056;2023-05-29T04:12:08;100782.40;;;11.70
67353;BMP180;54238;52.278;21.056;2023-05-29T04:14:38;100784.00;;;11.80
67353;BMP180;54238;52.278;21.056;2023-05-29T04:17:08;100785.40;;;11.80
67353;BMP180;54238;52.278;21.056;2023-05-29T04:19:40;100784.00;;;11.90
67353;BMP180;54238;52.278;21.056;2023-05-29T04:22:07;100782.80;;;12.06
67353;BMP180;54238;52.278;21.056;2023-05-29T04:24:39;100789.40;;;12.20
67353;BMP180;54238;52.278;21.056;2023-05-29T04:27:09;100789.00;;;12.30
67353;BMP180;54238;52.278;21.056;2023-05-29T04:29:45;100791.20;;;12.40
67353;BMP180;54238;52.278;21.056;2023-05-29T04:32:15;100788.00;;;12.50
67353;BMP180;54238;52.278;21.056;2023-05-29T04:34:45;100797.00;;;12.60
67353;BMP180;54238;52.278;21.056;2023-05-29T04:37:15;100795.00;;;12.68
67353;BMP180;54238;52.278;21.056;2023-05-29T04:39:45;100793.60;;;12.80
67353;BMP180;54238;52.278;21.056;2023-05-29T04:42:17;100789.60;;;12.94
67353;BMP180;54238;52.278;21.056;2023-05-29T04:44:45;100795.00;;;13.06
67353;BMP180;54238;52.278;21.056;2023-05-29T04:47:15;100797.40;;;13.18
67353;BMP180;54238;52.278;21.056;2023-05-29T04:49:46;100796.00;;;13.30
67353;BMP180;54238;52.278;21.056;2023-05-29T04:52:20;100798.40;;;13.34
67353;BMP180;54238;52.278;21.056;2023-05-29T04:54:53;100794.40;;;13.40
67353;BMP180;54238;52.278;21.056;2023-05-29T04:57:23;100795.00;;;13.50
67353;BMP180;54238;52.278;21.056;2023-05-29T04:59:52;100792.40;;;13.60
67353;BMP180;54238;52.278;21.056;2023-05-29T05:02:21;100793.20;;;13.60
67353;BMP180;54238;52.278;21.056;2023-05-29T05:04:48;100795.80;;;13.74
67353;BMP180;54238;52.278;21.056;2023-05-29T05:07:19;100793.00;;;13.90
67353;BMP180;54238;52.278;21.056;2023-05-29T05:09:51;100789.20;;;14.00
67353;BMP180;54238;52.278;21.056;2023-05-29T05:12:22;100792.60;;;14.10
67353;BMP180;54238;52.278;21.056;2023-05-29T05:14:52;100790.00;;;14.20
67353;BMP180;54238;52.278;21.056;2023-05-29T05:17:21;100786.80;;;14.30
67353;BMP180;54238;52.278;21.056;2023-05-29T05:19:48;100788.00;;;14.40
67353;BMP180;54238;52.278;21.056;2023-05-29T05:22:19;100790.40;;;14.50
67353;BMP180;54238;52.278;21.056;2023-05-29T05:27:47;100789.40;;;14.80
67353;BMP180;54238;52.278;21.056;2023-05-29T05:30:14;100786.00;;;14.88
67353;BMP180;54238;52.278;21.056;2023-05-29T05:32:43;100784.40;;;14.92
67353;BMP180;54238;52.278;21.056;2023-05-29T05:37:50;100793.20;;;15.20
67353;BMP180;54238;52.278;21.056;2023-05-29T05:40:52;100792.00;;;15.40
67353;BMP180;54238;52.278;21.056;2023-05-29T05:43:22;100791.40;;;15.50
67353;BMP180;54238;52.278;21.056;2023-05-29T05:45:49;100794.80;;;15.64
67353;BMP180;54238;52.278;21.056;2023-05-29T05:48:17;100796.60;;;15.80
67353;BMP180;54238;52.278;21.056;2023-05-29T05:53:41;100797.60;;;16.00
67353;BMP180;54238;52.278;21.056;2023-05-29T05:56:13;100797.20;;;16.10
67353;BMP180;54238;52.278;21.056;2023-05-29T05:58:40;100797.20;;;16.20
67353;BMP180;54238;52.278;21.056;2023-05-29T06:01:11;100799.20;;;16.30
67353;BMP180;54238;52.278;21.056;2023-05-29T06:03:42;100799.80;;;16.40
67353;BMP180;54238;52.278;21.056;2023-05-29T06:06:17;100801.00;;;16.50
67353;BMP180;54238;52.278;21.056;2023-05-29T06:08:46;100799.40;;;16.60
67353;BMP180;54238;52.278;21.056;2023-05-29T06:11:14;100800.40;;;16.70
67353;BMP180;54238;52.278;21.056;2023-05-29T06:13:45;100797.20;;;16.86
67353;BMP180;54238;52.278;21.056;2023-05-29T06:16:15;100795.40;;;17.00
67353;BMP180;54238;52.278;21.056;2023-05-29T06:18:45;100794.40;;;17.10
67353;BMP180;54238;52.278;21.056;2023-05-29T06:21:17;100794.20;;;17.20
67353;BMP180;54238;52.278;21.056;2023-05-29T06:23:47;100795.40;;;17.32
67353;BMP180;54238;52.278;21.056;2023-05-29T06:26:18;100799.80;;;17.48
67353;BMP180;54238;52.278;21.056;2023-05-29T06:28:48;100799.40;;;17.60
67353;BMP180;54238;52.278;21.056;2023-05-29T06:31:17;100797.60;;;17.70
67353;BMP180;54238;52.278;21.056;2023-05-29T06:33:46;100798.20;;;17.80
67353;BMP180;54238;52.278;21.056;2023-05-29T06:36:13;100795.00;;;17.90
67353;BMP180;54238;52.278;21.056;2023-05-29T06:38:50;100796.40;;;18.00
67353;BMP180;54238;52.278;21.056;2023-05-29T06:41:18;100794.00;;;18.20
67353;BMP180;54238;52.278;21.056;2023-05-29T06:43:53;100794.40;;;18.30
67353;BMP180;54238;52.278;21.056;2023-05-29T06:46:26;100792.80;;;18.40
67353;BMP180;54238;52.278;21.056;2023-05-29T06:48:55;100793.20;;;18.60
67353;BMP180;54238;52.278;21.056;2023-05-29T06:51:25;100793.00;;;18.70
67353;BMP180;54238;52.278;21.056;2023-05-29T06:53:57;100790.80;;;18.80
67353;BMP180;54238;52.278;21.056;2023-05-29T06:56:25;100791.40;;;18.90
67353;BMP180;54238;52.278;21.056;2023-05-29T06:58:56;100796.60;;;19.00
67353;BMP180;54238;52.278;21.056;2023-05-29T07:01:23;100796.40;;;19.00
67353;BMP180;54238;52.278;21.056;2023-05-29T07:03:55;100793.40;;;19.10
67353;BMP180;54238;52.278;21.056;2023-05-29T07:06:22;100796.20;;;19.26
67353;BMP180;54238;52.278;21.056;2023-05-29T07:08:53;100796.60;;;19.40
67353;BMP180;54238;52.278;21.056;2023-05-29T07:11:26;100801.00;;;19.56
67353;BMP180;54238;52.278;21.056;2023-05-29T07:13:57;100799.60;;;19.70
67353;BMP180;54238;52.278;21.056;2023-05-29T07:16:27;100801.00;;;19.80
67353;BMP180;54238;52.278;21.056;2023-05-29T07:18:57;100802.00;;;19.90
67353;BMP180;54238;52.278;21.056;2023-05-29T07:21:28;100807.20;;;20.00
67353;BMP180;54238;52.278;21.056;2023-05-29T07:23:59;100807.80;;;20.10
67353;BMP180;54238;52.278;21.056;2023-05-29T07:26:31;100807.00;;;20.20
67353;BMP180;54238;52.278;21.056;2023-05-29T07:29:02;100805.40;;;20.30
67353;BMP180;54238;52.278;21.056;2023-05-29T07:31:31;100805.80;;;20.46
67353;BMP180;54238;52.278;21.056;2023-05-29T07:34:01;100809.20;;;20.60
67353;BMP180;54238;52.278;21.056;2023-05-29T07:36:30;100809.20;;;20.68
67353;BMP180;54238;52.278;21.056;2023-05-29T07:39:00;100810.20;;;20.80
67353;BMP180;54238;52.278;21.056;2023-05-29T07:41:37;100814.60;;;20.90
67353;BMP180;54238;52.278;21.056;2023-05-29T07:44:03;100812.60;;;20.90
67353;BMP180;54238;52.278;21.056;2023-05-29T07:46:34;100808.60;;;21.00
67353;BMP180;54238;52.278;21.056;2023-05-29T07:49:03;100810.20;;;21.00
67353;BMP180;54238;52.278;21.056;2023-05-29T07:51:40;100812.00;;;21.10
67353;BMP180;54238;52.278;21.056;2023-05-29T07:54:09;100811.20;;;21.20
67353;BMP180;54238;52.278;21.056;2023-05-29T07:56:42;100813.20;;;21.30
67353;BMP180;54238;52.278;21.056;2023-05-29T07:59:15;100813.60;;;21.40
67353;BMP180;54238;52.278;21.056;2023-05-29T08:01:46;100814.40;;;21.50
67353;BMP180;54238;52.278;21.056;2023-05-29T08:04:14;100815.00;;;21.60
67353;BMP180;54238;52.278;21.056;2023-05-29T08:06:43;100816.20;;;21.66
67353;BMP180;54238;52.278;21.056;2023-05-29T08:09:13;100815.40;;;21.70
67353;BMP180;54238;52.278;21.056;2023-05-29T08:11:43;100817.00;;;21.86
67353;BMP180;54238;52.278;21.056;2023-05-29T08:14:14;100813.60;;;21.90
67353;BMP180;54238;52.278;21.056;2023-05-29T08:16:45;100814.20;;;21.90
67353;BMP180;54238;52.278;21.056;2023-05-29T08:19:13;100814.20;;;21.90
67353;BMP180;54238;52.278;21.056;2023-05-29T08:21:43;100811.40;;;22.02
67353;BMP180;54238;52.278;21.056;2023-05-29T08:24:13;100811.40;;;22.10
67353;BMP180;54238;52.278;21.056;2023-05-29T08:26:43;100810.20;;;22.20
67353;BMP180;54238;52.278;21.056;2023-05-29T08:29:15;100806.40;;;22.30
67353;BMP180;54238;52.278;21.056;2023-05-29T08:31:45;100811.20;;;22.40
67353;BMP180;54238;52.278;21.056;2023-05-29T08:34:14;100809.00;;;22.42
67353;BMP180;54238;52.278;21.056;2023-05-29T08:36:46;100813.20;;;22.40
67353;BMP180;54238;52.278;21.056;2023-05-29T08:39:16;100818.20;;;22.50
67353;BMP180;54238;52.278;21.056;2023-05-29T08:44:22;100816.60;;;22.70
67353;BMP180;54238;52.278;21.056;2023-05-29T08:46:55;100817.20;;;22.76
67353;BMP180;54238;52.278;21.056;2023-05-29T08:49:23;100819.80;;;22.80
67353;BMP180;54238;52.278;21.056;2023-05-29T08:52:05;100820.00;;;23.00
67353;BMP180;54238;52.278;21.056;2023-05-29T08:54:39;100818.20;;;23.14
67353;BMP180;54238;52.278;21.056;2023-05-29T08:57:11;100819.20;;;23.30
67353;BMP180;54238;52.278;21.056;2023-05-29T09:02:40;100812.80;;;23.62
67353;BMP180;54238;52.278;21.056;2023-05-29T09:05:10;100810.20;;;23.80
67353;BMP180;54238;52.278;21.056;2023-05-29T09:07:42;100805.20;;;23.90
67353;BMP180;54238;52.278;21.056;2023-05-29T09:10:10;100810.20;;;24.00
67353;BMP180;54238;52.278;21.056;2023-05-29T09:12:38;100803.20;;;23.90
67353;BMP180;54238;52.278;21.056;2023-05-29T09:15:22;100802.20;;;24.00
67353;BMP180;54238;52.278;21.056;2023-05-29T09:17:51;100803.20;;;24.08
67353;BMP180;54238;52.278;21.056;2023-05-29T09:20:20;100802.80;;;24.20
67353;BMP180;54238;52.278;21.056;2023-05-29T09:25:32;100801.20;;;24.30
67353;BMP180;54238;52.278;21.056;2023-05-29T09:28:05;100802.00;;;24.40
67353;BMP180;54238;52.278;21.056;2023-05-29T09:30:46;100802.00;;;24.50
67353;BMP180;54238;52.278;21.056;2023-05-29T09:33:15;100803.80;;;24.70
67353;BMP180;54238;52.278;21.056;2023-05-29T09:35:48;100807.40;;;24.80
67353;BMP180;54238;52.278;21.056;2023-05-29T09:38:19;100806.20;;;24.80
67353;BMP180;54238;52.278;21.056;2023-05-29T09:40:49;100801.80;;;24.80
67353;BMP180;54238;52.278;21.056;2023-05-29T09:43:22;100794.40;;;24.90
67353;BMP180;54238;52.278;21.056;2023-05-29T09:45:52;100793.40;;;25.10
67353;BMP180;54238;52.278;21.056;2023-05-29T09:48:23;100792.60;;;25.36
67353;BMP180;54238;52.278;21.056;2023-05-29T09:50:51;100796.60;;;25.50
67353;BMP180;54238;52.278;21.056;2023-05-29T09:53:27;100797.80;;;25.70
67353;BMP180;54238;52.278;21.056;2023-05-29T09:56:01;100794.80;;;25.90
67353;BMP180;54238;52.278;21.056;2023-05-29T09:58:32;100795.40;;;26.16
67353;BMP180;54238;52.278;21.056;2023-05-29T10:00:59;100791.00;;;26.32
67353;BMP180;54238;52.278;21.056;2023-05-29T10:03:29;100790.80;;;26.52
67353;BMP180;54238;52.278;21.056;2023-05-29T10:06:04;100790.60;;;26.80
67353;BMP180;54238;52.278;21.056;2023-05-29T10:08:37;100788.80;;;27.00
67353;BMP180;54238;52.278;21.056;2023-05-29T10:11:08;100791.00;;;27.20
67353;BMP180;54238;52.278;21.056;2023-05-29T10:13:45;100789.20;;;27.20
67353;BMP180;54238;52.278;21.056;2023-05-29T10:16:21;100787.60;;;27.40
67353;BMP180;54238;52.278;21.056;2023-05-29T10:18:56;100790.20;;;27.62
67353;BMP180;54238;52.278;21.056;2023-05-29T10:21:28;100786.20;;;27.90
67353;BMP180;54238;52.278;21.056;2023-05-29T10:24:03;100788.00;;;28.22
67353;BMP180;54238;52.278;21.056;2023-05-29T10:26:40;100782.20;;;28.52
67353;BMP180;54238;52.278;21.056;2023-05-29T10:29:33;100787.00;;;28.80
67353;BMP180;54238;52.278;21.056;2023-05-29T10:32:52;100787.40;;;29.00
67353;BMP180;54238;52.278;21.056;2023-05-29T10:38:16;100787.40;;;29.30
67353;BMP180;54238;52.278;21.056;2023-05-29T10:40:47;100788.40;;;29.38
67353;BMP180;54238;52.278;21.056;2023-05-29T10:43:34;100781.20;;;29.50
67353;BMP180;54238;52.278;21.056;2023-05-29T10:46:02;100782.60;;;29.60
67353;BMP180;54238;52.278;21.056;2023-05-29T10:48:36;100783.80;;;29.50
67353;BMP180;54238;52.278;21.056;2023-05-29T10:51:27;100786.80;;;29.40
67353;BMP180;54238;52.278;21.056;2023-05-29T10:53:57;100785.00;;;29.30
67353;BMP180;54238;52.278;21.056;2023-05-29T10:56:29;100781.00;;;29.50
67353;BMP180;54238;52.278;21.056;2023-05-29T10:59:02;100780.80;;;29.30
67353;BMP180;54238;52.278;21.056;2023-05-29T11:01:34;100779.00;;;29.20
67353;BMP180;54238;52.278;21.056;2023-05-29T11:06:44;100772.60;;;29.38
67353;BMP180;54238;52.278;21.056;2023-05-29T11:09:36;100777.00;;;29.58
67353;BMP180;54238;52.278;21.056;2023-05-29T11:12:24;100770.20;;;29.60
67353;BMP180;54238;52.278;21.056;2023-05-29T11:15:04;100774.80;;;29.70
67353;BMP180;54238;52.278;21.056;2023-05-29T11:20:49;100767.20;;;30.00
67353;BMP180;54238;52.278;21.056;2023-05-29T11:23:23;100767.00;;;30.26
67353;BMP180;54238;52.278;21.056;2023-05-29T11:25:58;100764.20;;;30.30
67353;BMP180;54238;52.278;21.056;2023-05-29T11:28:27;100764.20;;;30.50
67353;BMP180;54238;52.278;21.056;2023-05-29T11:31:08;100760.60;;;30.68
67353;BMP180;54238;52.278;21.056;2023-05-29T11:33:40;100766.60;;;31.00
67353;BMP180;54238;52.278;21.056;2023-05-29T11:36:14;100764.60;;;31.40
67353;BMP180;54238;52.278;21.056;2023-05-29T11:38:46;100756.00;;;31.74
67353;BMP180;54238;52.278;21.056;2023-05-29T11:41:16;100755.60;;;32.08
67353;BMP180;54238;52.278;21.056;2023-05-29T11:44:06;100750.00;;;32.20
67353;BMP180;54238;52.278;21.056;2023-05-29T11:46:37;100759.60;;;31.72
67353;BMP180;54238;52.278;21.056;2023-05-29T11:49:05;100757.00;;;31.58
67353;BMP180;54238;52.278;21.056;2023-05-29T11:51:34;100758.20;;;31.50
67353;BMP180;54238;52.278;21.056;2023-05-29T11:54:06;100753.60;;;31.64
67353;BMP180;54238;52.278;21.056;2023-05-29T11:56:37;100754.60;;;31.80
67353;BMP180;54238;52.278;21.056;2023-05-29T11:59:13;100752.60;;;32.00
67353;BMP180;54238;52.278;21.056;2023-05-29T12:01:44;100753.40;;;32.42
67353;BMP180;54238;52.278;21.056;2023-05-29T12:04:17;100750.80;;;32.90
67353;BMP180;54238;52.278;21.056;2023-05-29T12:06:44;100749.40;;;33.30
67353;BMP180;54238;52.278;21.056;2023-05-29T12:09:26;100748.80;;;33.64
67353;BMP180;54238;52.278;21.056;2023-05-29T12:12:04;100744.20;;;34.00
67353;BMP180;54238;52.278;21.056;2023-05-29T12:14:33;100746.20;;;34.22
67353;BMP180;54238;52.278;21.056;2023-05-29T12:17:00;100745.60;;;34.28
67353;BMP180;54238;52.278;21.056;2023-05-29T12:19:32;100739.40;;;34.00
67353;BMP180;54238;52.278;21.056;2023-05-29T12:22:02;100740.80;;;34.10
67353;BMP180;54238;52.278;21.056;2023-05-29T12:24:31;100740.60;;;34.20
67353;BMP180;54238;52.278;21.056;2023-05-29T12:26:58;100735.20;;;34.20
67353;BMP180;54238;52.278;21.056;2023-05-29T12:29:33;100733.20;;;33.80
67353;BMP180;54238;52.278;21.056;2023-05-29T12:32:03;100730.60;;;33.44
67353;BMP180;54238;52.278;21.056;2023-05-29T12:34:35;100735.20;;;33.10
67353;BMP180;54238;52.278;21.056;2023-05-29T12:37:07;100735.80;;;33.20
67353;BMP180;54238;52.278;21.056;2023-05-29T12:39:36;100737.20;;;33.60
67353;BMP180;54238;52.278;21.056;2023-05-29T12:42:04;100731.80;;;33.60
67353;BMP180;54238;52.278;21.056;2023-05-29T12:44:34;100733.80;;;33.80
67353;BMP180;54238;52.278;21.056;2023-05-29T12:47:06;100735.20;;;33.76
67353;BMP180;54238;52.278;21.056;2023-05-29T12:49:36;100732.60;;;33.92
67353;BMP180;54238;52.278;21.056;2023-05-29T12:52:08;100730.60;;;34.20
67353;BMP180;54238;52.278;21.056;2023-05-29T12:54:41;100727.40;;;34.30
67353;BMP180;54238;52.278;21.056;2023-05-29T12:57:13;100732.00;;;34.16
67353;BMP180;54238;52.278;21.056;2023-05-29T12:59:41;100730.80;;;33.90
67353;BMP180;54238;52.278;21.056;2023-05-29T13:02:10;100721.00;;;33.70
67353;BMP180;54238;52.278;21.056;2023-05-29T13:04:39;100727.60;;;33.48
67353;BMP180;54238;52.278;21.056;2023-05-29T13:07:06;100715.40;;;33.30
67353;BMP180;54238;52.278;21.056;2023-05-29T13:12:37;100716.20;;;33.40
67353;BMP180;54238;52.278;21.056;2023-05-29T13:15:14;100711.20;;;33.52
67353;BMP180;54238;52.278;21.056;2023-05-29T13:17:44;100710.20;;;33.94
67353;BMP180;54238;52.278;21.056;2023-05-29T13:20:17;100701.80;;;34.40
67353;BMP180;54238;52.278;21.056;2023-05-29T13:22:50;100705.60;;;34.98
67353;BMP180;54238;52.278;21.056;2023-05-29T13:25:24;100701.80;;;35.40
67353;BMP180;54238;52.278;21.056;2023-05-29T13:27:53;100700.80;;;35.60
67353;BMP180;54238;52.278;21.056;2023-05-29T13:30:28;100705.40;;;35.70
67353;BMP180;54238;52.278;21.056;2023-05-29T13:33:00;100706.40;;;35.50
67353;BMP180;54238;52.278;21.056;2023-05-29T13:35:29;100705.80;;;34.98
67353;BMP180;54238;52.278;21.056;2023-05-29T13:37:59;100704.80;;;34.34
67353;BMP180;54238;52.278;21.056;2023-05-29T13:40:26;100704.00;;;33.12
67353;BMP180;54238;52.278;21.056;2023-05-29T13:42:58;100696.00;;;32.12
67353;BMP180;54238;52.278;21.056;2023-05-29T13:45:28;100684.00;;;32.10
67353;BMP180;54238;52.278;21.056;2023-05-29T13:47:58;100689.80;;;32.38
67353;BMP180;54238;52.278;21.056;2023-05-29T13:50:27;100687.00;;;32.80
67353;BMP180;54238;52.278;21.056;2023-05-29T13:52:57;100689.20;;;33.14
67353;BMP180;54238;52.278;21.056;2023-05-29T13:55:24;100685.40;;;33.52
67353;BMP180;54238;52.278;21.056;2023-05-29T13:57:52;100683.20;;;33.96
67353;BMP180;54238;52.278;21.056;2023-05-29T14:00:20;100690.00;;;33.90
67353;BMP180;54238;52.278;21.056;2023-05-29T14:02:47;100694.00;;;33.58
67353;BMP180;54238;52.278;21.056;2023-05-29T14:05:17;100692.80;;;33.14
67353;BMP180;54238;52.278;21.056;2023-05-29T14:07:44;100687.00;;;32.60
67353;BMP180;54238;52.278;21.056;2023-05-29T14:10:12;100689.80;;;32.08
67353;BMP180;54238;52.278;21.056;2023-05-29T14:12:39;100691.40;;;31.56
67353;BMP180;54238;52.278;21.056;2023-05-29T14:15:09;100688.60;;;30.62
67353;BMP180;54238;52.278;21.056;2023-05-29T14:17:37;100688.20;;;29.84
67353;BMP180;54238;52.278;21.056;2023-05-29T14:20:09;100679.40;;;29.40
67353;BMP180;54238;52.278;21.056;2023-05-29T14:22:39;100675.80;;;29.68
67353;BMP180;54238;52.278;21.056;2023-05-29T14:25:11;100680.80;;;30.10
67353;BMP180;54238;52.278;21.056;2023-05-29T14:27:41;100676.60;;;30.10
67353;BMP180;54238;52.278;21.056;2023-05-29T14:30:11;100670.40;;;29.90
67353;BMP180;54238;52.278;21.056;2023-05-29T14:35:14;100669.80;;;29.78
67353;BMP180;54238;52.278;21.056;2023-05-29T14:37:43;100669.60;;;29.80
67353;BMP180;54238;52.278;21.056;2023-05-29T14:40:13;100664.00;;;29.90
67353;BMP180;54238;52.278;21.056;2023-05-29T14:42:44;100658.40;;;30.02
67353;BMP180;54238;52.278;21.056;2023-05-29T14:45:17;100661.60;;;30.30
67353;BMP180;54238;52.278;21.056;2023-05-29T14:47:47;100659.60;;;30.70
67353;BMP180;54238;52.278;21.056;2023-05-29T14:50:21;100665.20;;;30.80